Report METAR

 

LIPB - Bolzano(Civ/It-A, Italy
Distance from station: NNE 37km
Dati ricevuti: 04/07/2022 22:50
DATI Obsoleti
Parz. nuvoloso
Parz. nuvoloso
 Vento da Variabile
Vento: Variabile 4 km/h
Temperatura: 20°C
P.to Rugiada: 18°C
Umidità: 88%
Barometro: 1019 hPa
Nuvole: Parz. nuvoloso
Visibility: 10 km
Cloud details: Parz. nuvoloso 3353 m
2022/07/04 20:50 LIPB 042050Z VRB02KT 9999 SCT110 20/18 Q1019
LIVR - Rolle Pass, Italy
Distance from station: ENE 46km
Dati ricevuti: 04/07/2022 12:55
DATI Obsoleti
Pioviggine, Coperto
Pioviggine, Coperto
 Vento da N
Vento: N 7 km/h
Temperatura: 11°C
P.to Rugiada: 11°C
Umidità: 100%
Barometro: 1028 hPa
Summary: Pioviggine
Nuvole: Coperto
Visibility: 10 km
Cloud details: Coperto 610 m
2022/07/04 10:55 LIVR 041055Z 35004KT 9999 -RA OVC020 11/11 Q1028
 
LIPS - Istrana (it-Afb), Italy
Distance from station: SE 86km
Dati ricevuti: 05/07/2022 04:55
Few Clouds
Few Clouds
 Vento da Variabile
Vento: Variabile 0 km/h
Temperatura: 22°C
P.to Rugiada: 18°C
Umidità: 78%
Barometro: 1014 hPa
Nuvole: Few Clouds
Visibility: 10 km
Cloud details: Few Clouds 3048 m
2022/07/05 02:55 LIPS 050255Z /////KT 9999 FEW100 22/18 Q1014
LIPX - Villafranca(Cv/M, Italy
Distance from station: SSO 88km
Dati ricevuti: 05/07/2022 04:50
Molto nuvoloso
Molto nuvoloso
 Vento da O
Vento: O 7 km/h
Temperatura: 21°C
P.to Rugiada: 16°C
Umidità: 73%
Barometro: 1014 hPa
Nuvole: Molto nuvoloso
Visibility: 10 km
Cloud details: Molto nuvoloso 7010 m
2022/07/05 02:50 LIPX 050250Z AUTO 28004KT 9999 BKN230/// 21/16 Q1014
 
LIPH - Treviso(Civ/It-A, Italy
Distance from station: SE 94km
Dati ricevuti: 05/07/2022 04:50
Sereno
Sereno
 Vento da Variabile
Vento: Variabile 2 km/h
Temperatura: 21°C
P.to Rugiada: 16°C
Umidità: 73%
Barometro: 1014 hPa
Nuvole: Sereno
Visibility: 10 km
2022/07/05 02:50 LIPH 050250Z AUTO VRB01KT 9999 NCD 21/16 Q1014
LIVE - Resia Pass, Italy
Distance from station: NO 95km
Dati ricevuti: 05/07/2022 04:55
Parz. nuvoloso
Parz. nuvoloso
 Vento da N
Vento: N 9 km/h
Temperatura: 13°C
P.to Rugiada: 11°C
Umidità: 88%
Barometro: 1022 hPa
Nuvole: Parz. nuvoloso
Visibility: 10 km
Cloud details: Parz. nuvoloso 914 m
2022/07/05 02:55 LIVE 050255Z 01005KT 9999 SCT030 13/11 Q1022
 
LIPU - Padova (civ/It-A, Italy
Distance from station: SSE 98km
Dati ricevuti: 03/07/2022 15:50
DATI Obsoleti
Sereno
Sereno
 Vento da SO
Vento: SO 6 km/h
Temperatura: 35°C
P.to Rugiada: 17°C
Umidità: 34%
Barometro: 1015 hPa
Summary: Sereno
Visibility: superiore a 10 km
2022/07/03 13:50 LIPU 031350Z 22003KT 150V270 CAVOK 35/17 Q1015